Time;durP1;ratioP1;P1;durP2;ratioP2;P2;SDS_P1;SDS_P2;PMS_P1;PMS_P2;Temp;Humidity;BMP_temperature;BMP_pressure;BME280_temperature;BME280_humidity;BME280_pressure;Samples;Min_cycle;Max_cycle;Signal;HPM_P1;HPM_P2
2022/03/07 00:00:40;;;;;;;22.83;6.97;;;0.00;99.90;;;;;;4996570;28;20409;-78
2022/03/07 00:03:06;;;;;;;18.88;6.65;;;0.00;99.90;;;;;;5014286;28;20092;-78
2022/03/07 00:05:32;;;;;;;19.20;6.40;;;-0.10;99.90;;;;;;4996761;28;20512;-78
2022/03/07 00:07:58;;;;;;;17.40;6.10;;;-0.10;99.90;;;;;;5014033;28;20049;-78
2022/03/07 00:10:24;;;;;;;19.95;6.70;;;-0.10;99.90;;;;;;4996868;28;20057;-78
2022/03/07 00:12:50;;;;;;;20.75;6.80;;;-0.10;99.90;;;;;;5014119;28;20053;-78
2022/03/07 00:15:16;;;;;;;16.77;6.75;;;-0.10;99.90;;;;;;4996420;28;20046;-78
2022/03/07 00:17:42;;;;;;;16.80;6.15;;;-0.10;99.90;;;;;;4996041;28;20124;-78
2022/03/07 00:20:09;;;;;;;17.67;6.38;;;-0.20;99.90;;;;;;4996311;28;20188;-78
2022/03/07 00:22:34;;;;;;;11.23;4.90;;;-0.20;99.90;;;;;;4996260;28;20180;-78
2022/03/07 00:25:00;;;;;;;16.42;5.30;;;-0.20;99.90;;;;;;4996667;28;20121;-78
2022/03/07 00:27:25;;;;;;;12.05;3.72;;;-0.20;99.90;;;;;;5014007;28;20501;-78
2022/03/07 00:29:51;;;;;;;13.02;3.95;;;-0.30;99.90;;;;;;5014025;28;20038;-78
2022/03/07 00:32:17;;;;;;;12.35;4.78;;;-0.30;99.90;;;;;;4996606;28;20120;-78
2022/03/07 00:34:43;;;;;;;11.45;3.75;;;-0.30;99.90;;;;;;4995981;28;20054;-78
2022/03/07 00:37:08;;;;;;;8.77;3.13;;;-0.30;99.90;;;;;;5014201;28;20042;-78
2022/03/07 00:39:34;;;;;;;7.82;2.35;;;-0.30;99.90;;;;;;5013743;28;20038;-78
2022/03/07 00:41:59;;;;;;;8.07;2.55;;;-0.30;99.90;;;;;;4996429;28;20140;-78
2022/03/07 00:44:25;;;;;;;7.65;2.10;;;-0.30;99.90;;;;;;4996215;28;20470;-78
2022/03/07 00:46:51;;;;;;;7.88;2.70;;;-0.30;99.90;;;;;;5013606;28;20046;-78
2022/03/07 00:49:16;;;;;;;6.47;2.17;;;-0.30;99.90;;;;;;4995959;28;20046;-78
2022/03/07 00:51:42;;;;;;;8.45;2.03;;;-0.30;99.90;;;;;;5013801;28;20099;-78
2022/03/07 00:54:07;;;;;;;7.18;2.20;;;-0.30;99.90;;;;;;4996053;28;20046;-78
2022/03/07 00:56:33;;;;;;;7.25;2.20;;;-0.30;99.90;;;;;;5013752;28;20046;-78
2022/03/07 00:58:59;;;;;;;4.38;1.95;;;-0.30;99.90;;;;;;4995864;28;20432;-78
2022/03/07 01:01:25;;;;;;;5.85;1.17;;;-0.30;99.90;;;;;;4996077;28;20133;-78
2022/03/07 01:03:50;;;;;;;5.78;1.20;;;-0.30;99.90;;;;;;5013664;28;20095;-78
2022/03/07 01:06:16;;;;;;;2.45;0.90;;;-0.30;99.90;;;;;;4995874;28;20125;-78
2022/03/07 01:08:41;;;;;;;3.00;0.88;;;-0.40;99.90;;;;;;5013850;28;20050;-78
2022/03/07 01:11:07;;;;;;;4.05;1.40;;;-0.40;99.90;;;;;;5013596;28;20096;-78
2022/03/07 01:13:33;;;;;;;4.65;1.10;;;-0.40;99.90;;;;;;4995801;28;20371;-78
2022/03/07 01:15:58;;;;;;;4.45;1.20;;;-0.40;99.90;;;;;;5013547;28;20053;-78
2022/03/07 01:18:24;;;;;;;3.55;0.88;;;-0.40;99.90;;;;;;5013443;28;20042;-78
2022/03/07 01:20:51;;;;;;;4.18;0.90;;;-0.40;99.90;;;;;;5013560;28;20037;-78
2022/03/07 01:23:16;;;;;;;5.63;1.15;;;-0.40;99.90;;;;;;4995743;28;20058;-78
2022/03/07 01:25:42;;;;;;;3.95;1.15;;;-0.40;99.90;;;;;;4996042;28;20053;-78
2022/03/07 01:28:08;;;;;;;4.90;1.15;;;-0.40;99.90;;;;;;5013208;28;20379;-78
2022/03/07 01:30:34;;;;;;;3.53;0.90;;;-0.50;99.90;;;;;;5016146;28;20033;-78
2022/03/07 01:32:59;;;;;;;1.90;0.80;;;-0.50;99.90;;;;;;4999397;28;20050;-78
2022/03/07 01:35:25;;;;;;;3.25;1.15;;;-0.50;99.90;;;;;;4999226;28;20078;-78
2022/03/07 01:37:51;;;;;;;2.85;1.20;;;-0.60;99.90;;;;;;5017148;28;20068;-78
2022/03/07 01:40:17;;;;;;;4.57;1.02;;;-0.50;99.90;;;;;;5016814;28;20042;-78
2022/03/07 01:42:42;;;;;;;3.58;0.88;;;-0.60;99.90;;;;;;4999253;28;20103;-78
2022/03/07 01:45:09;;;;;;;5.97;1.52;;;-0.60;99.90;;;;;;4999171;28;20053;-78
2022/03/07 01:47:35;;;;;;;5.38;1.92;;;-0.60;99.90;;;;;;5016734;28;20520;-78
2022/03/07 01:50:01;;;;;;;3.72;1.30;;;-0.60;99.90;;;;;;4999006;28;20053;-78
2022/03/07 01:52:27;;;;;;;4.30;1.77;;;-0.60;99.90;;;;;;5016470;28;20082;-78
2022/03/07 01:54:53;;;;;;;4.60;1.70;;;-0.60;99.90;;;;;;4998900;28;20050;-78
2022/03/07 01:57:19;;;;;;;5.78;2.22;;;-0.70;99.90;;;;;;5016585;28;20069;-78
2022/03/07 01:59:44;;;;;;;7.80;2.80;;;-0.70;99.90;;;;;;4998639;28;20057;-78
2022/03/07 02:02:10;;;;;;;4.00;1.50;;;-0.70;99.90;;;;;;4998934;28;20037;-78
2022/03/07 02:04:39;;;;;;;4.68;1.77;;;-0.70;99.90;;;;;;4998965;28;20081;-78
2022/03/07 02:07:05;;;;;;;12.68;5.60;;;-0.80;99.90;;;;;;4998919;28;20042;-78
2022/03/07 02:09:30;;;;;;;10.07;3.10;;;-0.80;99.90;;;;;;4998959;28;20425;-78
2022/03/07 02:11:56;;;;;;;9.13;2.70;;;-0.80;99.90;;;;;;4998969;28;20054;-78
2022/03/07 02:14:23;;;;;;;6.28;2.17;;;-0.80;99.90;;;;;;4998762;28;20181;-78
2022/03/07 02:16:49;;;;;;;6.20;2.60;;;-0.80;99.90;;;;;;5016180;28;20512;-78
2022/03/07 02:19:15;;;;;;;7.00;2.72;;;-0.80;99.90;;;;;;4998530;28;20121;-78
2022/03/07 02:21:47;;;;;;;8.65;2.33;;;-0.80;99.90;;;;;;4998693;28;20165;-78
2022/03/07 02:24:14;;;;;;;5.47;2.30;;;-0.90;99.90;;;;;;5016351;28;20050;-78
2022/03/07 02:26:41;;;;;;;6.15;2.20;;;-0.90;99.90;;;;;;5016014;28;20484;-79
2022/03/07 02:29:10;;;;;;;8.73;2.20;;;-0.90;99.90;;;;;;4998703;28;20141;-78
2022/03/07 02:31:36;;;;;;;8.65;2.33;;;-0.90;99.90;;;;;;5015997;28;20050;-78
2022/03/07 02:34:03;;;;;;;5.55;2.17;;;-0.90;99.90;;;;;;5015869;28;20103;-78
2022/03/07 02:36:30;;;;;;;3.60;1.98;;;-0.90;99.90;;;;;;5015874;28;20073;-78
2022/03/07 02:38:55;;;;;;;3.00;1.40;;;-0.90;99.90;;;;;;4998247;28;20041;-78
2022/03/07 02:41:21;;;;;;;4.57;1.48;;;-0.90;99.90;;;;;;4997786;28;20042;-78
2022/03/07 02:43:47;;;;;;;9.23;3.72;;;-0.90;99.90;;;;;;4998125;28;20580;-78
2022/03/07 02:46:12;;;;;;;13.95;5.72;;;-0.90;99.90;;;;;;4998195;28;20041;-78
2022/03/07 02:48:39;;;;;;;8.45;3.63;;;-1.00;99.90;;;;;;5015677;28;20389;-78
2022/03/07 02:51:04;;;;;;;8.40;2.60;;;-1.00;99.90;;;;;;4998180;28;20041;-78
2022/03/07 02:53:30;;;;;;;3.90;2.00;;;-1.00;99.90;;;;;;4998006;28;20053;-78
2022/03/07 02:55:56;;;;;;;5.05;2.28;;;-1.00;99.90;;;;;;5015515;28;20049;-78
2022/03/07 02:58:21;;;;;;;6.40;2.05;;;-1.00;99.90;;;;;;4997909;28;20041;-78
2022/03/07 03:00:47;;;;;;;4.07;1.30;;;-1.00;99.90;;;;;;5015106;28;20149;-78
2022/03/07 03:03:13;;;;;;;5.03;1.73;;;-1.00;99.90;;;;;;4997640;28;20125;-78
2022/03/07 03:05:39;;;;;;;5.10;1.73;;;-1.00;99.90;;;;;;5015361;28;20137;-78
2022/03/07 03:08:05;;;;;;;4.25;1.80;;;-1.00;99.90;;;;;;5015363;28;20038;-78
2022/03/07 03:10:30;;;;;;;3.30;1.10;;;-1.00;99.90;;;;;;4998375;28;20056;-78
2022/03/07 03:12:56;;;;;;;5.05;1.48;;;-1.10;99.90;;;;;;5014976;28;20440;-78
2022/03/07 03:15:22;;;;;;;3.15;1.45;;;-1.00;99.90;;;;;;5015175;28;20048;-78
2022/03/07 03:17:48;;;;;;;4.30;1.60;;;-1.10;99.90;;;;;;4997404;28;20056;-78
2022/03/07 03:20:16;;;;;;;3.85;1.48;;;-1.10;99.90;;;;;;5015104;28;20045;-78
2022/03/07 03:22:43;;;;;;;5.78;1.33;;;-1.10;99.90;;;;;;5015037;28;20137;-78
2022/03/07 03:25:10;;;;;;;3.33;1.25;;;-1.10;99.90;;;;;;4997140;28;20068;-78
2022/03/07 03:27:37;;;;;;;5.18;1.65;;;-1.20;99.90;;;;;;5014899;28;20064;-78
2022/03/07 03:30:05;;;;;;;5.00;1.63;;;-1.20;99.90;;;;;;4997049;28;20046;-78
2022/03/07 03:32:31;;;;;;;4.18;1.77;;;-1.20;99.90;;;;;;4997122;28;20046;-78
2022/03/07 03:34:57;;;;;;;5.75;1.83;;;-1.20;99.90;;;;;;5014915;28;20050;-78
2022/03/07 03:37:24;;;;;;;5.95;1.95;;;-1.20;99.90;;;;;;5014935;28;20489;-78
2022/03/07 03:39:50;;;;;;;5.05;1.95;;;-1.10;99.90;;;;;;4997191;28;20046;-78
2022/03/07 03:42:16;;;;;;;4.70;1.38;;;-1.20;99.90;;;;;;4997026;28;20148;-78
2022/03/07 03:44:41;;;;;;;7.53;1.60;;;-1.20;99.90;;;;;;5014644;28;20052;-78
2022/03/07 03:47:07;;;;;;;3.38;1.30;;;-1.20;99.90;;;;;;4996978;28;20045;-78
2022/03/07 03:49:33;;;;;;;5.38;1.52;;;-1.20;99.90;;;;;;5014645;28;20045;-78
2022/03/07 03:51:59;;;;;;;5.82;1.85;;;-1.30;99.90;;;;;;4997034;28;20437;-78
2022/03/07 03:54:24;;;;;;;5.38;1.70;;;-1.30;99.90;;;;;;5013679;28;20436;-78
2022/03/07 03:56:50;;;;;;;4.95;1.48;;;-1.30;99.90;;;;;;4996988;28;20050;-78
2022/03/07 03:59:16;;;;;;;5.38;1.30;;;-1.30;99.90;;;;;;5014375;28;20456;-78
2022/03/07 04:01:44;;;;;;;4.38;1.75;;;-1.30;99.90;;;;;;5014398;28;20042;-78
2022/03/07 04:04:14;;;;;;;3.80;1.33;;;-1.40;99.90;;;;;;4996874;28;20054;-78
2022/03/07 04:06:41;;;;;;;3.75;1.00;;;-1.30;99.90;;;;;;4996742;28;20508;-78
2022/03/07 04:09:21;;;;;;;3.03;1.15;;;-1.30;99.90;;;;;;5014205;28;20049;-78
2022/03/07 04:11:47;;;;;;;3.67;1.15;;;-1.40;99.90;;;;;;4996705;28;20482;-78
2022/03/07 04:14:14;;;;;;;3.67;1.33;;;-1.40;99.90;;;;;;5014138;28;20080;-78
2022/03/07 04:16:40;;;;;;;3.38;1.27;;;-1.40;99.90;;;;;;4996485;28;20453;-78
2022/03/07 04:19:08;;;;;;;5.25;1.50;;;-1.30;99.90;;;;;;5014135;28;20050;-78
2022/03/07 04:21:35;;;;;;;5.85;1.23;;;-1.40;99.90;;;;;;4996446;28;20042;-78
2022/03/07 04:24:01;;;;;;;5.05;1.45;;;-1.40;99.90;;;;;;4996463;28;20099;-78
2022/03/07 04:26:26;;;;;;;2.83;1.20;;;-1.40;99.90;;;;;;5014014;28;20042;-78
2022/03/07 04:28:52;;;;;;;6.85;1.25;;;-1.40;99.90;;;;;;4996577;28;20072;-78
2022/03/07 04:31:18;;;;;;;3.70;0.98;;;-1.40;99.90;;;;;;4996333;28;20121;-78
2022/03/07 04:33:44;;;;;;;4.78;1.00;;;-1.50;99.90;;;;;;5013917;28;20042;-78
2022/03/07 04:36:09;;;;;;;4.68;1.30;;;-1.40;99.90;;;;;;4996434;28;20054;-78
2022/03/07 04:38:35;;;;;;;6.65;1.60;;;-1.40;99.90;;;;;;5013839;28;20049;-78
2022/03/07 04:41:02;;;;;;;5.13;1.42;;;-1.50;99.90;;;;;;4996167;28;20536;-78
2022/03/07 04:43:27;;;;;;;4.55;1.20;;;-1.50;99.90;;;;;;4996260;28;20038;-78
2022/03/07 04:45:53;;;;;;;2.80;1.20;;;-1.50;99.90;;;;;;5013699;28;20077;-78
2022/03/07 04:48:22;;;;;;;4.82;1.50;;;-1.50;99.90;;;;;;4996478;28;20527;-78
2022/03/07 04:50:48;;;;;;;3.58;0.95;;;-1.50;99.90;;;;;;5013676;28;20535;-78
2022/03/07 04:53:14;;;;;;;3.10;1.25;;;-1.50;99.90;;;;;;4996114;28;20100;-78
2022/03/07 04:55:39;;;;;;;3.85;1.23;;;-1.50;99.90;;;;;;4996244;28;20049;-78
2022/03/07 04:58:05;;;;;;;5.15;1.75;;;-1.60;99.90;;;;;;5013611;28;20046;-78
2022/03/07 05:00:31;;;;;;;3.65;1.20;;;-1.60;99.90;;;;;;4995930;28;20111;-78
2022/03/07 05:02:57;;;;;;;4.20;1.40;;;-1.60;99.90;;;;;;4996047;28;20057;-78
2022/03/07 05:05:23;;;;;;;4.25;1.25;;;-1.60;99.90;;;;;;4998658;28;20042;-78
2022/03/07 05:07:49;;;;;;;5.82;1.58;;;-1.60;99.90;;;;;;5000362;28;20061;-78
2022/03/07 05:10:16;;;;;;;5.72;1.30;;;-1.60;99.90;;;;;;5017502;28;20042;-78
2022/03/07 05:12:43;;;;;;;3.08;1.40;;;-1.60;99.90;;;;;;5017503;28;20120;-78
2022/03/07 05:15:09;;;;;;;5.43;1.45;;;-1.60;99.90;;;;;;5017379;28;20046;-78
2022/03/07 05:17:56;;;;;;;3.72;1.38;;;-1.70;99.90;;;;;;5017415;28;20038;-78
2022/03/07 05:20:23;;;;;;;3.28;1.33;;;-1.60;99.90;;;;;;4999805;28;20046;-78
2022/03/07 05:22:49;;;;;;;7.57;1.88;;;-1.70;99.90;;;;;;4999582;28;20054;-78
2022/03/07 05:25:17;;;;;;;4.10;1.80;;;-1.70;99.90;;;;;;5017272;28;20096;-78
2022/03/07 05:27:43;;;;;;;3.90;1.48;;;-1.70;99.90;;;;;;5017233;28;20074;-78
2022/03/07 05:30:11;;;;;;;5.82;1.85;;;-1.70;99.90;;;;;;5017168;28;20118;-78
2022/03/07 05:32:37;;;;;;;3.58;1.55;;;-1.70;99.90;;;;;;4999689;28;20056;-77
2022/03/07 05:35:04;;;;;;;3.13;1.33;;;-1.70;99.90;;;;;;5016849;28;20482;-77
2022/03/07 05:37:29;;;;;;;5.85;1.60;;;-1.70;99.90;;;;;;4999299;28;20057;-78
2022/03/07 05:39:55;;;;;;;4.20;1.50;;;-1.70;99.90;;;;;;4999267;28;20049;-78
2022/03/07 05:42:21;;;;;;;3.17;1.10;;;-1.70;99.90;;;;;;5016919;28;20042;-78
2022/03/07 05:44:47;;;;;;;5.00;1.83;;;-1.70;99.90;;;;;;5016840;28;20468;-78
2022/03/07 05:47:12;;;;;;;3.35;1.60;;;-1.70;99.90;;;;;;4999139;28;20069;-78
2022/03/07 05:49:38;;;;;;;5.78;2.35;;;-1.70;99.90;;;;;;4999064;28;20190;-78
2022/03/07 05:52:05;;;;;;;6.22;2.25;;;-1.70;99.90;;;;;;4999035;28;20041;-78
2022/03/07 05:54:30;;;;;;;3.50;1.88;;;-1.70;99.90;;;;;;4998953;28;20081;-78
2022/03/07 05:56:56;;;;;;;8.07;2.15;;;-1.70;99.90;;;;;;5016400;28;20081;-78
2022/03/07 05:59:22;;;;;;;5.90;2.40;;;-1.70;99.90;;;;;;5015908;28;20052;-78
2022/03/07 06:01:48;;;;;;;7.47;2.08;;;-1.70;99.90;;;;;;4997831;28;20125;-77
2022/03/07 06:04:14;;;;;;;4.75;1.95;;;-1.80;99.90;;;;;;5016373;28;20184;-78
2022/03/07 06:06:39;;;;;;;7.65;1.65;;;-1.80;99.90;;;;;;4998739;28;20058;-78
2022/03/07 06:09:05;;;;;;;4.00;1.77;;;-1.80;99.90;;;;;;4998970;28;20053;-78
2022/03/07 06:11:31;;;;;;;5.43;1.80;;;-1.80;99.90;;;;;;4998559;28;20050;-78
2022/03/07 06:13:56;;;;;;;5.85;2.45;;;-1.80;99.90;;;;;;4998475;28;20056;-78
2022/03/07 06:16:22;;;;;;;4.20;1.70;;;-1.80;99.90;;;;;;4997739;28;20050;-78
2022/03/07 06:18:47;;;;;;;6.93;1.77;;;-1.80;99.90;;;;;;5016236;28;20405;-78
2022/03/07 06:21:13;;;;;;;6.30;1.75;;;-1.80;99.90;;;;;;5016150;28;20132;-78
2022/03/07 06:23:39;;;;;;;5.32;2.00;;;-1.80;99.90;;;;;;4998608;28;20453;-78
2022/03/07 06:26:06;;;;;;;4.55;1.92;;;-1.80;99.90;;;;;;4998545;28;20056;-78
2022/03/07 06:28:32;;;;;;;5.35;1.80;;;-1.70;99.90;;;;;;5015897;28;20485;-78
2022/03/07 06:30:59;;;;;;;4.97;2.00;;;-1.70;99.90;;;;;;5015631;28;20093;-78
2022/03/07 06:33:24;;;;;;;5.32;2.20;;;-1.70;99.90;;;;;;5015563;28;20052;-78
2022/03/07 06:35:50;;;;;;;4.43;1.70;;;-1.80;99.90;;;;;;4998340;28;20054;-78
2022/03/07 06:38:17;;;;;;;4.45;2.22;;;-1.80;99.90;;;;;;4998129;28;20046;-78
2022/03/07 06:40:43;;;;;;;3.78;1.70;;;-1.80;99.90;;;;;;4998082;28;20046;-78
2022/03/07 06:43:09;;;;;;;3.13;1.55;;;-1.70;99.90;;;;;;4998291;28;20053;-78
2022/03/07 06:45:35;;;;;;;4.90;2.78;;;-1.70;99.90;;;;;;5015433;28;20547;-78
2022/03/07 06:48:00;;;;;;;6.90;2.88;;;-1.60;99.90;;;;;;4997962;28;20046;-78
2022/03/07 06:50:27;;;;;;;8.10;2.50;;;-1.60;99.90;;;;;;5015469;28;20046;-78
2022/03/07 06:52:53;;;;;;;8.05;3.05;;;-1.60;99.90;;;;;;4997964;28;20046;-78
2022/03/07 06:55:18;;;;;;;8.45;2.60;;;-1.50;99.90;;;;;;5015473;28;20042;-78
2022/03/07 06:57:44;;;;;;;7.55;1.75;;;-1.50;99.90;;;;;;4997735;28;20057;-78
2022/03/07 07:00:15;;;;;;;6.97;2.50;;;-1.40;99.90;;;;;;4997351;28;20058;-78
2022/03/07 07:02:41;;;;;;;7.70;2.20;;;-1.30;99.90;;;;;;5015358;28;20045;-78
2022/03/07 07:05:08;;;;;;;10.88;2.60;;;-1.20;99.90;;;;;;4997804;28;20518;-78
2022/03/07 07:07:34;;;;;;;5.45;2.20;;;-1.10;99.90;;;;;;5014992;28;20046;-78
2022/03/07 07:10:01;;;;;;;5.50;2.40;;;-1.10;99.90;;;;;;4997649;28;20401;-77
2022/03/07 07:12:27;;;;;;;10.15;1.90;;;-1.00;99.90;;;;;;5014820;28;20405;-77
2022/03/07 07:14:52;;;;;;;5.40;1.90;;;-1.00;99.90;;;;;;4997216;28;20511;-77
2022/03/07 07:17:18;;;;;;;5.18;1.67;;;-0.80;99.90;;;;;;4997287;28;20041;-78
2022/03/07 07:19:44;;;;;;;4.82;2.10;;;-0.80;99.90;;;;;;4997373;28;20042;-80
2022/03/07 07:22:10;;;;;;;3.63;1.70;;;-0.60;99.90;;;;;;4997272;28;20128;-77
2022/03/07 07:24:36;;;;;;;6.57;1.50;;;-0.50;99.90;;;;;;4997192;28;20056;-77
2022/03/07 07:27:03;;;;;;;4.10;1.77;;;-0.30;99.90;;;;;;4994595;28;20100;-77
2022/03/07 07:29:29;;;;;;;4.32;1.90;;;-0.20;99.90;;;;;;4985855;28;20058;-77
2022/03/07 07:31:54;;;;;;;5.18;2.13;;;-0.10;99.90;;;;;;4977496;28;20050;-77
2022/03/07 07:34:20;;;;;;;4.50;1.92;;;0.10;99.90;;;;;;4977153;28;20141;-78
2022/03/07 07:36:48;;;;;;;6.32;2.20;;;0.20;99.90;;;;;;4977224;28;20078;-77
2022/03/07 07:39:14;;;;;;;4.93;2.08;;;0.30;99.90;;;;;;4977120;28;20549;-77
2022/03/07 07:41:39;;;;;;;6.47;1.95;;;0.40;99.90;;;;;;4977093;28;20077;-77
2022/03/07 07:44:05;;;;;;;7.43;2.40;;;0.60;99.90;;;;;;4977183;28;20042;-77
2022/03/07 07:46:31;;;;;;;7.28;2.22;;;0.70;99.90;;;;;;4977133;28;20494;-77
2022/03/07 07:48:57;;;;;;;5.75;2.45;;;0.90;99.90;;;;;;4976933;28;20074;-77
2022/03/07 07:51:22;;;;;;;6.57;2.13;;;1.00;99.90;;;;;;4977262;28;20089;-77
2022/03/07 07:53:48;;;;;;;5.72;2.58;;;1.20;99.90;;;;;;4976895;28;20498;-77
2022/03/07 07:56:14;;;;;;;5.35;3.22;;;1.40;99.90;;;;;;4994374;28;20046;-77
2022/03/07 07:58:40;;;;;;;8.82;3.17;;;1.50;99.90;;;;;;4993982;28;20104;-77
2022/03/07 08:01:06;;;;;;;12.82;3.33;;;1.70;99.90;;;;;;4976931;28;20054;-78
2022/03/07 08:03:32;;;;;;;11.27;3.15;;;1.80;99.90;;;;;;4977081;28;20050;-77
2022/03/07 08:05:58;;;;;;;8.13;3.05;;;2.00;99.90;;;;;;4976950;28;20397;-78
2022/03/07 08:08:24;;;;;;;7.63;3.10;;;2.10;99.90;;;;;;4976767;28;20042;-84
2022/03/07 08:10:49;;;;;;;5.18;3.30;;;2.30;99.90;;;;;;4976687;28;20045;-78
2022/03/07 08:13:15;;;;;;;8.38;2.85;;;2.50;99.90;;;;;;4976506;28;20057;-78
2022/03/07 08:15:41;;;;;;;7.22;3.35;;;2.60;99.90;;;;;;4976604;28;20129;-79
2022/03/07 08:18:07;;;;;;;8.82;3.30;;;2.70;99.90;;;;;;4976666;28;20402;-79
2022/03/07 08:20:34;;;;;;;7.13;2.80;;;2.90;99.90;;;;;;4976571;28;20121;-79
2022/03/07 08:23:00;;;;;;;7.05;3.17;;;3.00;99.90;;;;;;4976565;28;20047;-79
2022/03/07 08:25:26;;;;;;;9.82;4.15;;;3.10;99.90;;;;;;4976702;28;20058;-79
2022/03/07 08:27:52;;;;;;;6.40;2.60;;;3.20;99.90;;;;;;4976658;28;20441;-80
2022/03/07 08:30:21;;;;;;;4.50;2.55;;;3.40;99.90;;;;;;4976459;28;20074;-80
2022/03/07 08:32:47;;;;;;;5.15;2.47;;;3.50;99.90;;;;;;4976458;28;20046;-79
2022/03/07 08:35:13;;;;;;;6.70;2.42;;;3.60;99.90;;;;;;4976321;28;20054;-79
2022/03/07 08:37:39;;;;;;;10.60;2.90;;;3.90;99.90;;;;;;4976687;28;20042;-80
2022/03/07 08:40:07;;;;;;;6.65;2.85;;;4.00;99.90;;;;;;4975725;28;20625;-79
2022/03/07 08:42:33;;;;;;;6.13;2.40;;;4.00;99.90;;;;;;4976381;28;20046;-79
2022/03/07 08:44:59;;;;;;;5.15;2.22;;;4.20;99.90;;;;;;4976822;28;20049;-79
2022/03/07 08:47:25;;;;;;;4.57;2.10;;;4.40;99.90;;;;;;4993706;28;20629;-80
2022/03/07 08:49:51;;;;;;;6.97;1.85;;;4.50;99.90;;;;;;4982794;28;20089;-91
2022/03/07 08:52:17;;;;;;;4.78;2.00;;;4.60;99.90;;;;;;5082353;22;20064;-93
2022/03/07 08:54:43;;;;;;;5.70;2.00;;;4.70;99.90;;;;;;4999461;28;20054;-96
2022/03/07 08:57:10;;;;;;;4.93;2.15;;;4.90;99.90;;;;;;4996691;28;20133;-93
2022/03/07 08:59:35;;;;;;;5.40;1.85;;;5.00;99.90;;;;;;4997432;28;20068;-90
2022/03/07 09:02:02;;;;;;;8.43;2.10;;;5.20;99.90;;;;;;5171743;23;20397;-89
2022/03/07 09:04:28;;;;;;;4.25;1.75;;;5.30;99.90;;;;;;4996651;28;20064;-95
2022/03/07 09:06:54;;;;;;;3.83;1.85;;;5.40;99.90;;;;;;4997324;28;20129;-91
2022/03/07 09:09:32;;;;;;;5.15;2.40;;;5.50;99.90;;;;;;4998252;28;20127;-95
2022/03/07 09:11:59;;;;;;;6.13;2.40;;;5.70;99.90;;;;;;4996732;28;20054;-95
2022/03/07 09:14:24;;;;;;;5.38;2.13;;;5.80;99.90;;;;;;4997713;28;20133;-96
2022/03/07 09:16:51;;;;;;;11.45;3.95;;;6.00;99.90;;;;;;4997773;28;20140;-96
2022/03/07 09:19:17;;;;;;;7.78;3.22;;;6.10;99.90;;;;;;4995821;28;20041;-81
2022/03/07 09:21:43;;;;;;;6.32;1.83;;;6.20;99.90;;;;;;4994292;28;20034;-88
2022/03/07 09:24:09;;;;;;;3.97;1.90;;;6.30;99.90;;;;;;4998699;28;20103;-95
2022/03/07 09:29:06;;;;;;;4.85;2.17;;;6.40;99.90;;;;;;5013257;28;20061;-93
2022/03/07 09:31:32;;;;;;;3.75;1.45;;;6.50;99.90;;;;;;5000774;28;20038;-94
2022/03/07 09:33:58;;;;;;;4.50;1.80;;;6.60;99.90;;;;;;4985048;28;20482;-92
2022/03/07 09:36:24;;;;;;;5.53;1.60;;;6.70;99.90;;;;;;4985915;28;20050;-93
2022/03/07 09:41:20;;;;;;;5.20;1.77;;;6.90;99.90;;;;;;5248394;22;20108;-90
2022/03/07 09:43:46;;;;;;;6.28;1.67;;;6.90;99.90;;;;;;5054862;23;20050;-94
2022/03/07 09:46:15;;;;;;;3.25;1.27;;;7.00;99.90;;;;;;5049265;23;20049;-95
2022/03/07 09:48:43;;;;;;;7.38;1.45;;;6.90;99.90;;;;;;5052802;23;20132;-95
2022/03/07 09:51:09;;;;;;;6.35;1.70;;;6.80;99.90;;;;;;4963650;28;20549;-95
2022/03/07 09:53:34;;;;;;;3.33;1.58;;;6.80;99.90;;;;;;5264797;23;20383;-89
2022/03/07 09:56:00;;;;;;;7.13;1.92;;;6.80;99.90;;;;;;5075207;23;20527;-93
2022/03/07 09:58:27;;;;;;;6.40;2.00;;;6.90;99.90;;;;;;5001900;28;20085;-94
2022/03/07 10:01:09;;;;;;;5.60;2.20;;;7.10;99.90;;;;;;5003817;28;20104;-95
2022/03/07 10:03:34;;;;;;;7.88;2.63;;;7.20;99.90;;;;;;5031299;23;20104;-94
2022/03/07 10:06:00;;;;;;;7.80;1.90;;;7.20;99.90;;;;;;4998866;28;20466;-80
2022/03/07 10:08:29;;;;;;;6.53;2.35;;;7.30;99.90;;;;;;4996015;28;20045;-80
2022/03/07 10:13:37;;;;;;;6.30;1.70;;;7.50;99.90;;;;;;5177336;22;20061;-94
2022/03/07 10:16:06;;;;;;;7.30;2.00;;;7.60;99.90;;;;;;4981654;28;20141;-92
2022/03/07 10:18:32;;;;;;;4.72;1.90;;;7.80;99.90;;;;;;4964869;28;20043;-96
2022/03/07 10:21:00;;;;;;;6.30;2.10;;;7.80;99.90;;;;;;5044652;23;20065;-92
2022/03/07 10:23:27;;;;;;;7.75;1.75;;;7.90;99.90;;;;;;5000953;28;20076;-95
2022/03/07 10:28:36;;;;;;;3.08;1.38;;;7.90;99.90;;;;;;5016467;28;20050;-93
2022/03/07 10:31:15;;;;;;;5.22;2.22;;;8.10;99.90;;;;;;5000105;28;20045;-94
2022/03/07 10:33:41;;;;;;;5.60;2.03;;;8.30;99.90;;;;;;5000033;28;20026;-92
2022/03/07 10:36:07;;;;;;;10.80;2.00;;;8.00;99.90;;;;;;5002846;28;20382;-91
2022/03/07 10:38:33;;;;;;;6.22;1.70;;;7.80;99.90;;;;;;4999855;28;20068;-95
2022/03/07 10:41:01;;;;;;;5.65;1.75;;;7.70;99.90;;;;;;4999782;28;20500;-92
2022/03/07 10:43:28;;;;;;;4.80;1.50;;;7.80;99.90;;;;;;5014973;28;20042;-88
2022/03/07 10:45:59;;;;;;;6.65;1.83;;;7.80;99.90;;;;;;4997563;28;20053;-87
2022/03/07 10:48:27;;;;;;;6.53;1.60;;;7.90;99.90;;;;;;4997882;28;20452;-87
2022/03/07 10:50:57;;;;;;;8.10;1.88;;;7.90;99.90;;;;;;4996800;28;20045;-88
2022/03/07 10:53:23;;;;;;;7.38;2.20;;;7.90;99.90;;;;;;4997703;28;20038;-88
2022/03/07 10:55:59;;;;;;;8.00;2.17;;;8.00;99.90;;;;;;4997172;28;20046;-87
2022/03/07 10:58:26;;;;;;;6.78;2.13;;;8.00;99.90;;;;;;4997696;28;20478;-86
2022/03/07 11:01:01;;;;;;;5.50;1.80;;;8.00;99.90;;;;;;4997637;28;20050;-85
2022/03/07 11:03:29;;;;;;;6.43;2.10;;;8.00;99.90;;;;;;4996462;28;20104;-85
2022/03/07 11:05:58;;;;;;;6.05;2.20;;;7.80;99.90;;;;;;4997143;28;20548;-87
2022/03/07 11:08:24;;;;;;;3.63;1.55;;;7.80;99.90;;;;;;4996942;28;20475;-87
2022/03/07 11:10:58;;;;;;;5.72;1.85;;;7.80;99.90;;;;;;4997078;28;20528;-87
2022/03/07 11:13:26;;;;;;;7.28;2.25;;;7.50;99.90;;;;;;4996834;28;20039;-86
2022/03/07 11:16:00;;;;;;;5.80;2.53;;;7.20;99.90;;;;;;4997032;28;20445;-87
2022/03/07 11:18:29;;;;;;;5.55;1.77;;;7.20;99.90;;;;;;4996468;28;20397;-87
2022/03/07 11:20:56;;;;;;;4.45;1.83;;;7.20;99.90;;;;;;4997002;28;20134;-88
2022/03/07 11:23:22;;;;;;;5.82;2.08;;;7.10;99.90;;;;;;4996788;28;20065;-88
2022/03/07 11:25:54;;;;;;;10.25;2.35;;;7.10;99.90;;;;;;4997094;28;20409;-89
2022/03/07 11:28:27;;;;;;;12.55;2.20;;;6.90;99.90;;;;;;4996210;28;20049;-88
2022/03/07 11:30:53;;;;;;;5.85;1.63;;;6.90;99.90;;;;;;4997017;28;20045;-88
2022/03/07 11:33:27;;;;;;;7.32;2.03;;;7.00;99.90;;;;;;4996376;28;20053;-87
2022/03/07 11:35:53;;;;;;;5.40;2.08;;;7.10;99.90;;;;;;4996738;28;20118;-86
2022/03/07 11:38:35;;;;;;;5.57;1.60;;;7.30;99.90;;;;;;4995774;28;20472;-86
2022/03/07 11:41:09;;;;;;;5.28;1.90;;;7.40;99.90;;;;;;4988712;28;20077;-87
2022/03/07 11:43:50;;;;;;;7.38;2.40;;;7.50;99.90;;;;;;4996021;28;20088;-85
2022/03/07 11:46:23;;;;;;;4.38;2.63;;;7.70;99.90;;;;;;4996853;28;20077;-87
2022/03/07 11:48:49;;;;;;;6.38;2.80;;;7.90;99.90;;;;;;4996361;28;20588;-87
2022/03/07 11:51:22;;;;;;;6.00;2.25;;;7.90;99.90;;;;;;4996751;28;20078;-85
2022/03/07 11:53:49;;;;;;;6.32;2.30;;;8.00;99.90;;;;;;4996093;28;20046;-84
2022/03/07 11:56:25;;;;;;;6.07;2.47;;;8.00;99.90;;;;;;4996611;28;20104;-86
2022/03/07 11:58:54;;;;;;;5.03;2.60;;;8.20;99.90;;;;;;4996166;28;20038;-84
2022/03/07 12:01:23;;;;;;;8.27;2.20;;;8.30;99.90;;;;;;4992220;28;20050;-87
2022/03/07 12:03:49;;;;;;;5.75;2.65;;;8.30;99.90;;;;;;4996249;28;20546;-86
2022/03/07 12:06:17;;;;;;;6.43;1.92;;;8.30;99.90;;;;;;4995305;28;20038;-86
2022/03/07 12:08:47;;;;;;;5.15;1.55;;;8.40;99.90;;;;;;4995640;28;20104;-88
2022/03/07 12:11:32;;;;;;;5.63;1.60;;;8.60;99.90;;;;;;4995533;28;20049;-86
2022/03/07 12:14:07;;;;;;;3.63;1.80;;;8.80;99.90;;;;;;4986731;28;20128;-87
2022/03/07 12:16:38;;;;;;;12.93;2.35;;;8.70;99.90;;;;;;4995838;28;20074;-86
2022/03/07 12:19:08;;;;;;;8.40;1.92;;;8.70;99.90;;;;;;4995931;28;20057;-86
2022/03/07 12:21:35;;;;;;;6.45;1.95;;;8.60;99.90;;;;;;4995817;28;20049;-86
2022/03/07 12:24:02;;;;;;;5.68;1.60;;;8.50;99.90;;;;;;4996111;28;20147;-85
2022/03/07 12:26:27;;;;;;;7.55;1.55;;;8.60;99.90;;;;;;4995312;28;20177;-87
2022/03/07 12:28:53;;;;;;;4.53;1.80;;;8.50;99.90;;;;;;4996067;28;20136;-85
2022/03/07 12:31:19;;;;;;;5.00;1.50;;;8.40;99.90;;;;;;4995611;28;20508;-86
2022/03/07 12:33:46;;;;;;;4.05;1.60;;;8.30;99.90;;;;;;4995906;28;20050;-85
2022/03/07 12:36:14;;;;;;;6.90;2.10;;;8.40;99.90;;;;;;4995367;28;20053;-85
2022/03/07 12:38:48;;;;;;;5.88;1.67;;;8.50;99.90;;;;;;4995947;28;20402;-86
2022/03/07 12:41:15;;;;;;;5.78;1.60;;;8.60;99.90;;;;;;4995486;28;20168;-86
2022/03/07 12:43:43;;;;;;;5.32;1.60;;;8.50;99.90;;;;;;4995568;28;20071;-86
2022/03/07 12:46:12;;;;;;;6.20;1.27;;;8.50;99.90;;;;;;4995322;28;20046;-85
2022/03/07 12:48:39;;;;;;;13.27;2.38;;;8.40;99.90;;;;;;4995542;28;20054;-85
2022/03/07 12:51:07;;;;;;;5.82;1.52;;;8.40;99.90;;;;;;4995638;28;20049;-85
2022/03/07 12:53:49;;;;;;;4.68;1.15;;;8.50;99.90;;;;;;4995319;28;20049;-86
2022/03/07 12:56:23;;;;;;;5.40;1.25;;;8.70;99.90;;;;;;4995323;28;20042;-85
2022/03/07 12:58:52;;;;;;;4.78;1.00;;;9.00;99.90;;;;;;4995631;28;20511;-85